sensor_id;sensor_type;location;lat;lon;timestamp;pressure;altitude;pressure_sealevel;temperature;humidity
11806;BME280;5960;42.602;23.482;2022-10-17T00:00:43;94644.03;;;10.34;63.06
11806;BME280;5960;42.602;23.482;2022-10-17T00:03:10;94650.94;;;10.35;63.08
11806;BME280;5960;42.602;23.482;2022-10-17T00:05:39;94648.63;;;10.32;62.90
11806;BME280;5960;42.602;23.482;2022-10-17T00:08:06;94646.91;;;10.23;63.45
11806;BME280;5960;42.602;23.482;2022-10-17T00:10:33;94651.69;;;10.28;63.39
11806;BME280;5960;42.602;23.482;2022-10-17T00:13:00;94654.03;;;10.31;63.07
11806;BME280;5960;42.602;23.482;2022-10-17T00:15:27;94648.25;;;10.27;63.59
11806;BME280;5960;42.602;23.482;2022-10-17T00:17:55;94652.50;;;10.20;63.68
11806;BME280;5960;42.602;23.482;2022-10-17T00:20:22;94655.75;;;10.14;63.89
11806;BME280;5960;42.602;23.482;2022-10-17T00:22:49;94654.44;;;10.09;63.93
11806;BME280;5960;42.602;23.482;2022-10-17T00:25:16;94661.47;;;10.09;63.98
11806;BME280;5960;42.602;23.482;2022-10-17T00:27:42;94663.44;;;10.07;63.90
11806;BME280;5960;42.602;23.482;2022-10-17T00:30:11;94657.69;;;10.03;64.37
11806;BME280;5960;42.602;23.482;2022-10-17T00:32:38;94657.56;;;10.13;64.07
11806;BME280;5960;42.602;23.482;2022-10-17T00:35:08;94655.41;;;10.08;63.70
11806;BME280;5960;42.602;23.482;2022-10-17T00:37:35;94657.78;;;9.93;64.30
11806;BME280;5960;42.602;23.482;2022-10-17T00:40:03;94660.91;;;9.97;64.17
11806;BME280;5960;42.602;23.482;2022-10-17T00:42:30;94657.09;;;9.91;65.07
11806;BME280;5960;42.602;23.482;2022-10-17T00:45:01;94659.63;;;10.01;64.30
11806;BME280;5960;42.602;23.482;2022-10-17T00:47:32;94665.72;;;10.02;64.42
11806;BME280;5960;42.602;23.482;2022-10-17T00:50:00;94660.91;;;9.97;64.52
11806;BME280;5960;42.602;23.482;2022-10-17T00:52:29;94670.09;;;9.93;64.71
11806;BME280;5960;42.602;23.482;2022-10-17T00:54:59;94663.34;;;9.90;64.51
11806;BME280;5960;42.602;23.482;2022-10-17T00:57:29;94667.75;;;9.82;64.42
11806;BME280;5960;42.602;23.482;2022-10-17T00:59:58;94659.47;;;9.76;65.08
11806;BME280;5960;42.602;23.482;2022-10-17T01:02:27;94663.28;;;9.82;65.16
11806;BME280;5960;42.602;23.482;2022-10-17T01:04:55;94664.63;;;9.60;65.60
11806;BME280;5960;42.602;23.482;2022-10-17T01:07:24;94661.53;;;9.64;65.51
11806;BME280;5960;42.602;23.482;2022-10-17T01:09:53;94666.72;;;9.56;65.75
11806;BME280;5960;42.602;23.482;2022-10-17T01:12:23;94660.22;;;9.42;65.99
11806;BME280;5960;42.602;23.482;2022-10-17T01:15:04;94656.03;;;9.31;66.80
11806;BME280;5960;42.602;23.482;2022-10-17T01:17:43;94658.94;;;9.28;67.01
11806;BME280;5960;42.602;23.482;2022-10-17T01:23:35;94650.97;;;9.38;66.97
11806;BME280;5960;42.602;23.482;2022-10-17T01:26:15;94654.72;;;9.36;66.56
11806;BME280;5960;42.602;23.482;2022-10-17T01:29:08;94655.19;;;9.31;66.89
11806;BME280;5960;42.602;23.482;2022-10-17T01:31:45;94656.38;;;9.37;67.10
11806;BME280;5960;42.602;23.482;2022-10-17T01:34:17;94652.75;;;9.38;67.04
11806;BME280;5960;42.602;23.482;2022-10-17T01:36:49;94650.50;;;9.25;67.28
11806;BME280;5960;42.602;23.482;2022-10-17T01:39:23;94642.19;;;9.11;67.79
11806;BME280;5960;42.602;23.482;2022-10-17T01:41:58;94652.19;;;9.08;68.07
11806;BME280;5960;42.602;23.482;2022-10-17T01:44:33;94657.44;;;9.08;68.09
11806;BME280;5960;42.602;23.482;2022-10-17T01:47:06;94659.09;;;9.09;68.29
11806;BME280;5960;42.602;23.482;2022-10-17T01:49:36;94658.78;;;9.12;67.75
11806;BME280;5960;42.602;23.482;2022-10-17T01:52:08;94664.41;;;9.17;67.65
11806;BME280;5960;42.602;23.482;2022-10-17T01:54:40;94661.56;;;9.10;67.94
11806;BME280;5960;42.602;23.482;2022-10-17T01:57:13;94669.47;;;9.10;67.85
11806;BME280;5960;42.602;23.482;2022-10-17T01:59:46;94672.75;;;9.12;67.71
11806;BME280;5960;42.602;23.482;2022-10-17T02:02:16;94670.94;;;9.13;67.89
11806;BME280;5960;42.602;23.482;2022-10-17T02:04:46;94675.09;;;9.15;67.61
11806;BME280;5960;42.602;23.482;2022-10-17T02:07:14;94675.41;;;9.12;67.94
11806;BME280;5960;42.602;23.482;2022-10-17T02:09:41;94680.34;;;9.15;67.59
11806;BME280;5960;42.602;23.482;2022-10-17T02:12:34;94679.38;;;9.16;67.56
11806;BME280;5960;42.602;23.482;2022-10-17T02:15:21;94678.13;;;9.21;67.76
11806;BME280;5960;42.602;23.482;2022-10-17T02:17:58;94681.94;;;9.26;67.14
11806;BME280;5960;42.602;23.482;2022-10-17T02:20:36;94680.56;;;9.22;67.31
11806;BME280;5960;42.602;23.482;2022-10-17T02:23:10;94686.59;;;9.14;67.90
11806;BME280;5960;42.602;23.482;2022-10-17T02:25:42;94688.59;;;9.02;68.20
11806;BME280;5960;42.602;23.482;2022-10-17T02:28:18;94687.41;;;8.97;68.43
11806;BME280;5960;42.602;23.482;2022-10-17T02:30:50;94691.69;;;8.98;68.21
11806;BME280;5960;42.602;23.482;2022-10-17T02:33:22;94685.13;;;9.02;68.35
11806;BME280;5960;42.602;23.482;2022-10-17T02:35:53;94686.22;;;8.81;68.76
11806;BME280;5960;42.602;23.482;2022-10-17T02:38:22;94689.91;;;8.70;68.96
11806;BME280;5960;42.602;23.482;2022-10-17T02:40:52;94688.53;;;8.66;69.60
11806;BME280;5960;42.602;23.482;2022-10-17T02:43:20;94694.63;;;8.67;69.54
11806;BME280;5960;42.602;23.482;2022-10-17T02:45:48;94690.56;;;8.72;69.13
11806;BME280;5960;42.602;23.482;2022-10-17T02:48:23;94697.31;;;8.75;68.92
11806;BME280;5960;42.602;23.482;2022-10-17T02:50:57;94692.34;;;8.82;69.10
11806;BME280;5960;42.602;23.482;2022-10-17T02:53:31;94696.06;;;8.79;69.04
11806;BME280;5960;42.602;23.482;2022-10-17T02:56:05;94701.03;;;8.82;68.63
11806;BME280;5960;42.602;23.482;2022-10-17T02:58:35;94701.19;;;8.81;69.17
11806;BME280;5960;42.602;23.482;2022-10-17T03:01:04;94703.88;;;8.71;69.65
11806;BME280;5960;42.602;23.482;2022-10-17T03:03:32;94708.09;;;8.82;69.08
11806;BME280;5960;42.602;23.482;2022-10-17T03:05:59;94709.25;;;8.97;68.56
11806;BME280;5960;42.602;23.482;2022-10-17T03:08:26;94715.09;;;8.91;68.27
11806;BME280;5960;42.602;23.482;2022-10-17T03:10:53;94717.34;;;8.86;68.76
11806;BME280;5960;42.602;23.482;2022-10-17T03:13:20;94717.19;;;8.87;68.62
11806;BME280;5960;42.602;23.482;2022-10-17T03:15:46;94722.44;;;8.87;68.83
11806;BME280;5960;42.602;23.482;2022-10-17T03:18:13;94718.75;;;8.80;69.00
11806;BME280;5960;42.602;23.482;2022-10-17T03:20:41;94719.72;;;8.79;68.42
11806;BME280;5960;42.602;23.482;2022-10-17T03:23:08;94720.84;;;8.77;69.17
11806;BME280;5960;42.602;23.482;2022-10-17T03:25:35;94716.44;;;8.67;68.97
11806;BME280;5960;42.602;23.482;2022-10-17T03:28:02;94714.72;;;8.58;69.51
11806;BME280;5960;42.602;23.482;2022-10-17T03:30:30;94715.78;;;8.65;69.44
11806;BME280;5960;42.602;23.482;2022-10-17T03:32:57;94712.84;;;8.68;69.37
11806;BME280;5960;42.602;23.482;2022-10-17T03:35:24;94715.97;;;8.54;69.57
11806;BME280;5960;42.602;23.482;2022-10-17T03:37:54;94724.25;;;8.59;70.10
11806;BME280;5960;42.602;23.482;2022-10-17T03:40:20;94726.31;;;8.55;69.73
11806;BME280;5960;42.602;23.482;2022-10-17T03:42:47;94719.44;;;8.44;70.11
11806;BME280;5960;42.602;23.482;2022-10-17T03:45:14;94723.34;;;8.40;69.80
11806;BME280;5960;42.602;23.482;2022-10-17T03:47:40;94730.22;;;8.41;70.20
11806;BME280;5960;42.602;23.482;2022-10-17T03:50:08;94732.84;;;8.41;70.55
11806;BME280;5960;42.602;23.482;2022-10-17T03:52:35;94725.97;;;8.40;70.17
11806;BME280;5960;42.602;23.482;2022-10-17T03:55:03;94728.97;;;8.46;70.05
11806;BME280;5960;42.602;23.482;2022-10-17T03:57:30;94732.72;;;8.43;70.35
11806;BME280;5960;42.602;23.482;2022-10-17T03:59:57;94724.47;;;8.28;70.98
11806;BME280;5960;42.602;23.482;2022-10-17T04:02:24;94727.63;;;8.32;70.81
11806;BME280;5960;42.602;23.482;2022-10-17T04:04:51;94728.59;;;8.31;70.93
11806;BME280;5960;42.602;23.482;2022-10-17T04:07:18;94726.97;;;8.20;71.53
11806;BME280;5960;42.602;23.482;2022-10-17T04:09:44;94722.56;;;8.20;71.11
11806;BME280;5960;42.602;23.482;2022-10-17T04:12:13;94735.97;;;8.17;71.03
11806;BME280;5960;42.602;23.482;2022-10-17T04:14:39;94732.78;;;8.23;70.34
11806;BME280;5960;42.602;23.482;2022-10-17T04:17:06;94736.91;;;8.26;70.46
11806;BME280;5960;42.602;23.482;2022-10-17T04:19:33;94734.97;;;8.28;70.58
11806;BME280;5960;42.602;23.482;2022-10-17T04:22:00;94738.44;;;8.28;71.00
11806;BME280;5960;42.602;23.482;2022-10-17T04:24:27;94740.66;;;8.23;71.13
11806;BME280;5960;42.602;23.482;2022-10-17T04:26:54;94739.25;;;8.29;70.96
11806;BME280;5960;42.602;23.482;2022-10-17T04:29:23;94740.78;;;8.22;70.72
11806;BME280;5960;42.602;23.482;2022-10-17T04:31:50;94749.31;;;8.34;70.14
11806;BME280;5960;42.602;23.482;2022-10-17T04:34:17;94743.13;;;8.25;70.36
11806;BME280;5960;42.602;23.482;2022-10-17T04:36:43;94747.59;;;8.15;70.31
11806;BME280;5960;42.602;23.482;2022-10-17T04:39:11;94748.94;;;8.19;70.81
11806;BME280;5960;42.602;23.482;2022-10-17T04:41:38;94753.50;;;8.26;70.54
11806;BME280;5960;42.602;23.482;2022-10-17T04:44:06;94755.69;;;8.31;70.32
11806;BME280;5960;42.602;23.482;2022-10-17T04:46:34;94758.06;;;8.24;70.71
11806;BME280;5960;42.602;23.482;2022-10-17T04:49:01;94750.91;;;8.17;71.27
11806;BME280;5960;42.602;23.482;2022-10-17T04:51:27;94757.69;;;8.09;71.58
11806;BME280;5960;42.602;23.482;2022-10-17T04:53:54;94765.28;;;8.12;71.95
11806;BME280;5960;42.602;23.482;2022-10-17T04:56:22;94764.03;;;8.17;71.24
11806;BME280;5960;42.602;23.482;2022-10-17T04:58:50;94761.75;;;8.32;70.90
11806;BME280;5960;42.602;23.482;2022-10-17T05:01:18;94764.81;;;8.27;71.05
11806;BME280;5960;42.602;23.482;2022-10-17T05:03:47;94757.91;;;8.26;71.09
11806;BME280;5960;42.602;23.482;2022-10-17T05:06:16;94766.34;;;8.20;71.69
11806;BME280;5960;42.602;23.482;2022-10-17T05:08:44;94774.63;;;8.25;71.30
11806;BME280;5960;42.602;23.482;2022-10-17T05:11:16;94771.69;;;8.38;70.70
11806;BME280;5960;42.602;23.482;2022-10-17T05:13:43;94774.47;;;8.36;70.41
11806;BME280;5960;42.602;23.482;2022-10-17T05:16:10;94765.06;;;8.34;70.76
11806;BME280;5960;42.602;23.482;2022-10-17T05:18:37;94772.13;;;8.33;70.73
11806;BME280;5960;42.602;23.482;2022-10-17T05:21:05;94780.69;;;8.35;70.60
11806;BME280;5960;42.602;23.482;2022-10-17T05:23:32;94779.13;;;8.42;70.55
11806;BME280;5960;42.602;23.482;2022-10-17T05:25:59;94783.28;;;8.45;70.73
11806;BME280;5960;42.602;23.482;2022-10-17T05:28:26;94787.69;;;8.44;70.97
11806;BME280;5960;42.602;23.482;2022-10-17T05:30:52;94794.75;;;8.54;70.83
11806;BME280;5960;42.602;23.482;2022-10-17T05:33:19;94790.16;;;8.66;70.20
11806;BME280;5960;42.602;23.482;2022-10-17T05:35:46;94791.59;;;8.88;69.46
11806;BME280;5960;42.602;23.482;2022-10-17T05:38:14;94793.16;;;9.09;69.36
11806;BME280;5960;42.602;23.482;2022-10-17T05:40:41;94789.53;;;9.38;68.43
11806;BME280;5960;42.602;23.482;2022-10-17T05:43:07;94780.91;;;9.63;67.68
11806;BME280;5960;42.602;23.482;2022-10-17T05:45:34;94796.44;;;9.93;66.35
11806;BME280;5960;42.602;23.482;2022-10-17T05:48:01;94792.22;;;10.18;65.72
11806;BME280;5960;42.602;23.482;2022-10-17T05:50:28;94799.78;;;10.39;65.00
11806;BME280;5960;42.602;23.482;2022-10-17T05:52:55;94800.75;;;10.57;64.82
11806;BME280;5960;42.602;23.482;2022-10-17T05:55:23;94804.50;;;10.80;64.14
11806;BME280;5960;42.602;23.482;2022-10-17T05:57:50;94815.00;;;11.07;63.95
11806;BME280;5960;42.602;23.482;2022-10-17T06:00:17;94817.09;;;11.38;62.40
11806;BME280;5960;42.602;23.482;2022-10-17T06:02:44;94813.03;;;11.52;62.50
11806;BME280;5960;42.602;23.482;2022-10-17T06:05:11;94817.34;;;11.69;62.14
11806;BME280;5960;42.602;23.482;2022-10-17T06:07:38;94817.38;;;11.86;61.56
11806;BME280;5960;42.602;23.482;2022-10-17T06:10:06;94821.34;;;11.98;61.36
11806;BME280;5960;42.602;23.482;2022-10-17T06:12:34;94826.03;;;12.21;60.77
11806;BME280;5960;42.602;23.482;2022-10-17T06:15:01;94830.16;;;12.40;59.84
11806;BME280;5960;42.602;23.482;2022-10-17T06:17:28;94837.06;;;12.66;59.58
11806;BME280;5960;42.602;23.482;2022-10-17T06:19:54;94834.06;;;12.77;58.51
11806;BME280;5960;42.602;23.482;2022-10-17T06:22:21;94835.38;;;12.82;58.70
11806;BME280;5960;42.602;23.482;2022-10-17T06:24:48;94835.53;;;12.97;58.96
11806;BME280;5960;42.602;23.482;2022-10-17T06:27:15;94844.72;;;13.09;58.67
11806;BME280;5960;42.602;23.482;2022-10-17T06:29:43;94840.75;;;13.21;58.35
11806;BME280;5960;42.602;23.482;2022-10-17T06:32:10;94845.31;;;13.36;58.39
11806;BME280;5960;42.602;23.482;2022-10-17T06:34:36;94852.22;;;13.53;57.70
11806;BME280;5960;42.602;23.482;2022-10-17T06:37:03;94846.19;;;13.68;57.54
11806;BME280;5960;42.602;23.482;2022-10-17T06:39:30;94850.28;;;13.79;56.61
11806;BME280;5960;42.602;23.482;2022-10-17T06:41:58;94852.88;;;13.87;56.34
11806;BME280;5960;42.602;23.482;2022-10-17T06:44:25;94850.81;;;13.97;55.61
11806;BME280;5960;42.602;23.482;2022-10-17T06:46:56;94848.88;;;13.91;55.69
11806;BME280;5960;42.602;23.482;2022-10-17T06:49:23;94846.25;;;14.14;56.13
11806;BME280;5960;42.602;23.482;2022-10-17T06:51:50;94855.66;;;14.40;55.54
11806;BME280;5960;42.602;23.482;2022-10-17T06:54:17;94855.44;;;14.65;54.98
11806;BME280;5960;42.602;23.482;2022-10-17T06:56:44;94852.53;;;14.98;54.20
11806;BME280;5960;42.602;23.482;2022-10-17T06:59:11;94852.63;;;15.20;53.93
11806;BME280;5960;42.602;23.482;2022-10-17T07:01:37;94859.31;;;15.31;53.84
11806;BME280;5960;42.602;23.482;2022-10-17T07:04:05;94853.53;;;15.42;53.46
11806;BME280;5960;42.602;23.482;2022-10-17T07:06:33;94853.69;;;15.71;52.50
11806;BME280;5960;42.602;23.482;2022-10-17T07:08:59;94855.97;;;15.89;52.07
11806;BME280;5960;42.602;23.482;2022-10-17T07:11:27;94858.78;;;16.02;51.20
11806;BME280;5960;42.602;23.482;2022-10-17T07:13:54;94855.59;;;16.14;50.98
11806;BME280;5960;42.602;23.482;2022-10-17T07:16:20;94858.09;;;16.37;50.51
11806;BME280;5960;42.602;23.482;2022-10-17T07:18:48;94862.56;;;16.58;50.11
11806;BME280;5960;42.602;23.482;2022-10-17T07:21:16;94862.50;;;16.73;49.38
11806;BME280;5960;42.602;23.482;2022-10-17T07:23:43;94861.00;;;16.92;49.29
11806;BME280;5960;42.602;23.482;2022-10-17T07:26:11;94860.63;;;17.24;48.56
11806;BME280;5960;42.602;23.482;2022-10-17T07:28:40;94864.72;;;17.55;47.51
11806;BME280;5960;42.602;23.482;2022-10-17T07:31:09;94868.72;;;17.79;47.19
11806;BME280;5960;42.602;23.482;2022-10-17T07:33:36;94871.91;;;18.10;46.31
11806;BME280;5960;42.602;23.482;2022-10-17T07:36:04;94867.28;;;18.39;45.25
11806;BME280;5960;42.602;23.482;2022-10-17T07:38:33;94862.19;;;18.71;44.73
11806;BME280;5960;42.602;23.482;2022-10-17T07:41:02;94880.25;;;18.62;43.94
11806;BME280;5960;42.602;23.482;2022-10-17T07:43:29;94871.81;;;18.38;44.37
11806;BME280;5960;42.602;23.482;2022-10-17T07:45:56;94872.44;;;18.67;44.47
11806;BME280;5960;42.602;23.482;2022-10-17T07:48:23;94876.94;;;18.46;44.51
11806;BME280;5960;42.602;23.482;2022-10-17T07:50:50;94876.16;;;18.79;44.21
11806;BME280;5960;42.602;23.482;2022-10-17T07:53:17;94876.97;;;19.34;44.01
11806;BME280;5960;42.602;23.482;2022-10-17T07:55:46;94865.09;;;19.82;43.06
11806;BME280;5960;42.602;23.482;2022-10-17T07:58:14;94877.13;;;20.18;41.91
11806;BME280;5960;42.602;23.482;2022-10-17T08:00:41;94875.97;;;20.39;41.65
11806;BME280;5960;42.602;23.482;2022-10-17T08:03:09;94876.19;;;20.77;41.20
11806;BME280;5960;42.602;23.482;2022-10-17T08:05:36;94868.06;;;21.09;39.69
11806;BME280;5960;42.602;23.482;2022-10-17T08:08:03;94869.81;;;21.22;39.55
11806;BME280;5960;42.602;23.482;2022-10-17T08:10:30;94867.56;;;21.44;39.94
11806;BME280;5960;42.602;23.482;2022-10-17T08:12:58;94870.13;;;21.94;37.98
11806;BME280;5960;42.602;23.482;2022-10-17T08:15:25;94868.66;;;22.29;37.24
11806;BME280;5960;42.602;23.482;2022-10-17T08:17:52;94872.81;;;22.44;36.21
11806;BME280;5960;42.602;23.482;2022-10-17T08:20:20;94870.91;;;22.63;36.12
11806;BME280;5960;42.602;23.482;2022-10-17T08:22:50;94863.22;;;22.90;36.01
11806;BME280;5960;42.602;23.482;2022-10-17T08:25:17;94867.81;;;23.13;35.40
11806;BME280;5960;42.602;23.482;2022-10-17T08:27:44;94864.94;;;23.39;34.69
11806;BME280;5960;42.602;23.482;2022-10-17T08:30:12;94861.50;;;23.67;33.78
11806;BME280;5960;42.602;23.482;2022-10-17T08:32:39;94869.41;;;23.86;33.95
11806;BME280;5960;42.602;23.482;2022-10-17T08:35:07;94868.16;;;23.77;32.33
11806;BME280;5960;42.602;23.482;2022-10-17T08:37:34;94874.47;;;23.82;31.03
11806;BME280;5960;42.602;23.482;2022-10-17T08:40:01;94864.53;;;23.83;28.72
11806;BME280;5960;42.602;23.482;2022-10-17T08:42:44;94866.94;;;23.96;29.95
11806;BME280;5960;42.602;23.482;2022-10-17T08:45:24;94874.09;;;24.31;30.72
11806;BME280;5960;42.602;23.482;2022-10-17T08:47:57;94874.91;;;24.73;29.45
11806;BME280;5960;42.602;23.482;2022-10-17T08:50:29;94861.84;;;24.99;29.18
11806;BME280;5960;42.602;23.482;2022-10-17T08:53:02;94868.47;;;24.74;27.34
11806;BME280;5960;42.602;23.482;2022-10-17T08:55:35;94877.41;;;23.81;28.04
11806;BME280;5960;42.602;23.482;2022-10-17T08:58:09;94872.75;;;22.62;28.91
11806;BME280;5960;42.602;23.482;2022-10-17T09:00:40;94876.38;;;22.37;29.07
11806;BME280;5960;42.602;23.482;2022-10-17T09:03:16;94876.47;;;22.31;29.32
11806;BME280;5960;42.602;23.482;2022-10-17T09:05:49;94883.72;;;22.12;29.40
11806;BME280;5960;42.602;23.482;2022-10-17T09:08:27;94872.41;;;22.59;30.35
11806;BME280;5960;42.602;23.482;2022-10-17T09:10:57;94877.19;;;23.23;27.76
11806;BME280;5960;42.602;23.482;2022-10-17T09:13:43;94878.00;;;23.71;28.23
11806;BME280;5960;42.602;23.482;2022-10-17T09:16:26;94873.81;;;24.16;26.54
11806;BME280;5960;42.602;23.482;2022-10-17T09:19:00;94870.94;;;24.06;25.84
11806;BME280;5960;42.602;23.482;2022-10-17T09:21:38;94870.69;;;24.07;27.24
11806;BME280;5960;42.602;23.482;2022-10-17T09:24:14;94876.31;;;24.63;27.22
11806;BME280;5960;42.602;23.482;2022-10-17T09:26:44;94872.72;;;25.04;26.71
11806;BME280;5960;42.602;23.482;2022-10-17T09:29:16;94867.97;;;24.94;25.61
11806;BME280;5960;42.602;23.482;2022-10-17T09:31:50;94877.59;;;24.90;25.70
11806;BME280;5960;42.602;23.482;2022-10-17T09:34:18;94872.63;;;24.82;25.96
11806;BME280;5960;42.602;23.482;2022-10-17T09:36:46;94878.53;;;24.09;26.19
11806;BME280;5960;42.602;23.482;2022-10-17T09:39:15;94870.72;;;24.36;26.48
11806;BME280;5960;42.602;23.482;2022-10-17T09:41:46;94880.81;;;24.87;25.56
11806;BME280;5960;42.602;23.482;2022-10-17T09:44:17;94877.97;;;24.64;25.42
11806;BME280;5960;42.602;23.482;2022-10-17T09:47:01;94881.25;;;24.38;25.60
11806;BME280;5960;42.602;23.482;2022-10-17T09:49:33;94873.50;;;24.12;25.54
11806;BME280;5960;42.602;23.482;2022-10-17T09:52:01;94865.25;;;23.54;27.01
11806;BME280;5960;42.602;23.482;2022-10-17T09:54:39;94867.13;;;23.66;27.50
11806;BME280;5960;42.602;23.482;2022-10-17T09:57:08;94865.56;;;24.34;27.59
11806;BME280;5960;42.602;23.482;2022-10-17T09:59:38;94864.47;;;24.93;27.29
11806;BME280;5960;42.602;23.482;2022-10-17T10:02:15;94861.09;;;25.54;27.21
11806;BME280;5960;42.602;23.482;2022-10-17T10:04:57;94867.66;;;26.03;26.16
11806;BME280;5960;42.602;23.482;2022-10-17T10:07:26;94854.03;;;25.93;25.44
11806;BME280;5960;42.602;23.482;2022-10-17T10:09:54;94856.53;;;25.77;25.75
11806;BME280;5960;42.602;23.482;2022-10-17T10:12:23;94857.50;;;26.10;25.66
11806;BME280;5960;42.602;23.482;2022-10-17T10:14:51;94860.69;;;25.85;26.33
11806;BME280;5960;42.602;23.482;2022-10-17T10:17:32;94850.41;;;26.04;26.26
11806;BME280;5960;42.602;23.482;2022-10-17T10:20:00;94852.94;;;26.38;25.95
11806;BME280;5960;42.602;23.482;2022-10-17T10:22:27;94842.97;;;25.50;25.73
11806;BME280;5960;42.602;23.482;2022-10-17T10:25:10;94845.25;;;25.41;26.86
11806;BME280;5960;42.602;23.482;2022-10-17T10:27:39;94846.44;;;25.90;26.72
11806;BME280;5960;42.602;23.482;2022-10-17T10:30:16;94842.47;;;26.42;25.61
11806;BME280;5960;42.602;23.482;2022-10-17T10:32:46;94841.72;;;26.79;25.65
11806;BME280;5960;42.602;23.482;2022-10-17T10:35:20;94838.97;;;27.39;24.42
11806;BME280;5960;42.602;23.482;2022-10-17T10:37:50;94829.13;;;27.66;24.30
11806;BME280;5960;42.602;23.482;2022-10-17T10:40:19;94834.59;;;27.81;23.05
11806;BME280;5960;42.602;23.482;2022-10-17T10:42:49;94826.88;;;27.52;23.70
11806;BME280;5960;42.602;23.482;2022-10-17T10:45:18;94837.59;;;27.80;23.44
11806;BME280;5960;42.602;23.482;2022-10-17T10:47:54;94830.47;;;27.68;24.24
11806;BME280;5960;42.602;23.482;2022-10-17T10:50:25;94820.75;;;27.72;23.86
11806;BME280;5960;42.602;23.482;2022-10-17T10:53:03;94814.91;;;27.05;23.12
11806;BME280;5960;42.602;23.482;2022-10-17T10:55:35;94815.41;;;26.69;24.66
11806;BME280;5960;42.602;23.482;2022-10-17T10:58:17;94816.59;;;26.79;23.62
11806;BME280;5960;42.602;23.482;2022-10-17T11:00:46;94820.50;;;26.93;24.05
11806;BME280;5960;42.602;23.482;2022-10-17T11:03:19;94814.81;;;27.32;23.27
11806;BME280;5960;42.602;23.482;2022-10-17T11:05:53;94814.25;;;27.30;23.02
11806;BME280;5960;42.602;23.482;2022-10-17T11:08:26;94808.91;;;26.38;23.67
11806;BME280;5960;42.602;23.482;2022-10-17T11:11:04;94804.00;;;26.35;23.47
11806;BME280;5960;42.602;23.482;2022-10-17T11:13:38;94805.63;;;26.63;24.04
11806;BME280;5960;42.602;23.482;2022-10-17T11:16:16;94806.00;;;27.05;24.19
11806;BME280;5960;42.602;23.482;2022-10-17T11:18:48;94806.25;;;27.46;23.70
11806;BME280;5960;42.602;23.482;2022-10-17T11:21:21;94803.53;;;27.03;22.90
11806;BME280;5960;42.602;23.482;2022-10-17T11:23:55;94801.25;;;26.84;22.87
11806;BME280;5960;42.602;23.482;2022-10-17T11:26:27;94801.66;;;27.03;25.25
11806;BME280;5960;42.602;23.482;2022-10-17T11:28:57;94800.16;;;27.66;24.34
11806;BME280;5960;42.602;23.482;2022-10-17T11:31:28;94797.28;;;27.99;23.05
11806;BME280;5960;42.602;23.482;2022-10-17T11:34:00;94792.41;;;28.01;21.61
11806;BME280;5960;42.602;23.482;2022-10-17T11:36:29;94793.53;;;28.05;22.67
11806;BME280;5960;42.602;23.482;2022-10-17T11:39:01;94789.03;;;28.42;22.59
11806;BME280;5960;42.602;23.482;2022-10-17T11:41:34;94781.78;;;28.78;22.47
11806;BME280;5960;42.602;23.482;2022-10-17T11:44:10;94783.06;;;29.27;21.56
11806;BME280;5960;42.602;23.482;2022-10-17T11:46:40;94784.41;;;29.51;20.42
11806;BME280;5960;42.602;23.482;2022-10-17T11:49:12;94785.41;;;29.81;20.79
11806;BME280;5960;42.602;23.482;2022-10-17T11:51:44;94777.66;;;30.09;20.28
11806;BME280;5960;42.602;23.482;2022-10-17T11:54:16;94777.66;;;30.14;18.97
11806;BME280;5960;42.602;23.482;2022-10-17T11:56:49;94774.00;;;30.34;20.32
11806;BME280;5960;42.602;23.482;2022-10-17T11:59:38;94775.19;;;30.97;20.57
11806;BME280;5960;42.602;23.482;2022-10-17T12:02:10;94769.53;;;31.96;18.34
11806;BME280;5960;42.602;23.482;2022-10-17T12:04:49;94775.16;;;33.00;17.34
11806;BME280;5960;42.602;23.482;2022-10-17T12:07:26;94779.56;;;33.90;16.69
11806;BME280;5960;42.602;23.482;2022-10-17T12:09:59;94776.09;;;33.99;16.61
11806;BME280;5960;42.602;23.482;2022-10-17T12:12:29;94776.78;;;34.55;16.24
11806;BME280;5960;42.602;23.482;2022-10-17T12:15:29;94778.03;;;33.98;15.86
11806;BME280;5960;42.602;23.482;2022-10-17T12:17:58;94772.44;;;33.89;16.74
11806;BME280;5960;42.602;23.482;2022-10-17T12:20:29;94770.56;;;35.00;16.07
11806;BME280;5960;42.602;23.482;2022-10-17T12:23:01;94773.13;;;35.51;16.02
11806;BME280;5960;42.602;23.482;2022-10-17T12:25:30;94769.19;;;36.68;15.28
11806;BME280;5960;42.602;23.482;2022-10-17T12:28:13;94775.94;;;36.44;14.69
11806;BME280;5960;42.602;23.482;2022-10-17T12:31:02;94764.84;;;37.97;14.01
11806;BME280;5960;42.602;23.482;2022-10-17T12:33:33;94765.19;;;38.89;13.59
11806;BME280;5960;42.602;23.482;2022-10-17T12:42:45;94771.69;;;42.33;11.73
11806;BME280;5960;42.602;23.482;2022-10-17T12:45:47;94769.03;;;42.92;11.06
11806;BME280;5960;42.602;23.482;2022-10-17T12:52:13;94766.94;;;42.49;11.01
11806;BME280;5960;42.602;23.482;2022-10-17T12:54:42;94769.00;;;43.54;10.55
11806;BME280;5960;42.602;23.482;2022-10-17T12:57:14;94763.66;;;43.88;9.87
11806;BME280;5960;42.602;23.482;2022-10-17T12:59:45;94770.59;;;44.02;10.16
11806;BME280;5960;42.602;23.482;2022-10-17T13:02:17;94763.72;;;44.15;9.72
11806;BME280;5960;42.602;23.482;2022-10-17T13:04:44;94765.19;;;42.41;9.22
11806;BME280;5960;42.602;23.482;2022-10-17T13:07:18;94767.34;;;41.51;10.14
11806;BME280;5960;42.602;23.482;2022-10-17T13:09:45;94762.75;;;41.56;10.49
11806;BME280;5960;42.602;23.482;2022-10-17T13:12:16;94771.97;;;41.76;10.43
11806;BME280;5960;42.602;23.482;2022-10-17T13:14:44;94759.59;;;42.37;10.05
11806;BME280;5960;42.602;23.482;2022-10-17T13:17:21;94767.31;;;41.64;10.24
11806;BME280;5960;42.602;23.482;2022-10-17T13:19:48;94762.66;;;42.52;10.28
11806;BME280;5960;42.602;23.482;2022-10-17T13:22:19;94766.09;;;43.24;9.76
11806;BME280;5960;42.602;23.482;2022-10-17T13:24:46;94765.09;;;43.79;9.59
11806;BME280;5960;42.602;23.482;2022-10-17T13:27:25;94759.31;;;44.14;9.10
11806;BME280;5960;42.602;23.482;2022-10-17T13:29:53;94772.03;;;43.92;9.57
11806;BME280;5960;42.602;23.482;2022-10-17T13:32:22;94766.13;;;43.94;9.23
11806;BME280;5960;42.602;23.482;2022-10-17T13:35:07;94762.56;;;44.20;8.59